createdAt,value
2019-04-20T00:00:17.095Z,0.00
2019-04-20T00:01:22.901Z,0.00
2019-04-20T00:02:19.347Z,0.00
2019-04-20T00:03:16.064Z,0.00
2019-04-20T00:04:21.194Z,0.00
2019-04-20T00:05:17.046Z,0.00
2019-04-20T00:06:17.005Z,0.00
2019-04-20T00:07:18.717Z,0.00
2019-04-20T00:08:23.396Z,0.00
2019-04-20T00:09:21.091Z,0.00
2019-04-20T00:10:20.013Z,0.00
2019-04-20T00:11:25.449Z,0.00
2019-04-20T00:12:24.914Z,0.00
2019-04-20T00:13:29.036Z,0.00
2019-04-20T00:14:22.418Z,0.00
2019-04-20T00:15:17.530Z,0.00
2019-04-20T00:16:16.854Z,0.00
2019-04-20T00:17:15.959Z,0.00
2019-04-20T00:18:16.981Z,0.00
2019-04-20T00:19:24.328Z,0.00
2019-04-20T00:20:23.826Z,0.00
2019-04-20T00:21:17.953Z,0.00
2019-04-20T00:22:34.382Z,0.00
2019-04-20T00:23:22.851Z,0.00
2019-04-20T00:24:23.420Z,0.00
2019-04-20T00:25:20.160Z,0.00
2019-04-20T00:26:26.560Z,0.00
2019-04-20T00:27:40.241Z,0.00
2019-04-20T00:28:35.167Z,0.00
2019-04-20T00:29:35.569Z,0.00
2019-04-20T00:30:43.411Z,0.00
2019-04-20T00:31:30.773Z,0.00
2019-04-20T00:32:29.387Z,0.00
2019-04-20T00:33:31.979Z,0.00
2019-04-20T00:34:22.863Z,0.00
2019-04-20T00:35:16.950Z,0.00
2019-04-20T00:36:16.154Z,0.00
2019-04-20T00:37:16.986Z,0.00
2019-04-20T00:38:16.037Z,0.00
2019-04-20T00:39:17.242Z,0.00
2019-04-20T00:40:17.037Z,0.00
2019-04-20T00:41:17.743Z,0.00
2019-04-20T00:42:17.891Z,0.00
2019-04-20T00:43:21.252Z,0.00
2019-04-20T00:44:23.270Z,0.00
2019-04-20T00:45:23.509Z,0.00
2019-04-20T00:46:26.290Z,0.00
2019-04-20T00:47:30.677Z,0.00
2019-04-20T00:48:31.530Z,0.00
2019-04-20T00:49:32.211Z,0.00
2019-04-20T00:50:35.819Z,0.00
2019-04-20T00:51:32.730Z,0.00
2019-04-20T00:52:31.533Z,0.00
2019-04-20T00:53:34.253Z,0.00
2019-04-20T00:54:17.949Z,0.00
2019-04-20T00:55:16.916Z,0.00
2019-04-20T00:56:16.152Z,0.00
2019-04-20T00:57:25.909Z,0.00
2019-04-20T00:58:23.407Z,0.00
2019-04-20T00:59:27.709Z,0.00
2019-04-20T01:00:31.569Z,0.00
2019-04-20T01:01:36.192Z,0.00
2019-04-20T01:02:32.592Z,0.00
2019-04-20T01:03:34.049Z,0.00
2019-04-20T01:04:38.419Z,0.00
2019-04-20T01:05:28.229Z,0.00
2019-04-20T01:07:28.931Z,0.00
2019-04-20T01:08:17.135Z,0.00
2019-04-20T01:09:16.016Z,0.00
2019-04-20T01:10:15.353Z,0.00
2019-04-20T01:11:16.759Z,0.00
2019-04-20T01:12:22.507Z,0.00
2019-04-20T01:13:20.071Z,0.00
2019-04-20T01:14:21.092Z,0.00
2019-04-20T01:15:25.557Z,0.00
2019-04-20T01:16:25.182Z,0.00
2019-04-20T01:17:16.314Z,0.00
2019-04-20T01:18:15.320Z,0.00
2019-04-20T01:19:15.809Z,0.00
2019-04-20T01:20:15.292Z,0.00
2019-04-20T01:21:20.279Z,0.00
2019-04-20T01:22:19.908Z,0.00
2019-04-20T01:23:20.922Z,0.00
2019-04-20T01:25:35.283Z,0.00
2019-04-20T01:26:31.340Z,0.00
2019-04-20T01:27:42.153Z,0.00
2019-04-20T01:28:46.430Z,0.00
2019-04-20T01:29:39.206Z,0.00
2019-04-20T01:30:37.738Z,0.00
2019-04-20T01:31:38.446Z,0.00
2019-04-20T01:32:49.199Z,0.00
2019-04-20T01:33:42.826Z,0.00
2019-04-20T01:34:42.683Z,0.00
2019-04-20T01:35:44.117Z,0.00
2019-04-20T01:36:49.083Z,0.00
2019-04-20T01:37:46.907Z,0.00
2019-04-20T01:38:45.107Z,0.00
2019-04-20T01:39:37.070Z,0.00
2019-04-20T01:40:31.556Z,0.00
2019-04-20T01:41:30.495Z,0.00
2019-04-20T01:42:30.050Z,0.00
2019-04-20T01:43:31.181Z,0.00
2019-04-20T01:44:35.400Z,0.00
2019-04-20T01:45:35.701Z,0.00
2019-04-20T01:46:31.640Z,0.00
2019-04-20T01:47:36.725Z,0.00
2019-04-20T01:48:33.980Z,0.00
2019-04-20T01:49:33.599Z,0.00
2019-04-20T01:50:33.714Z,0.00
2019-04-20T01:51:39.281Z,0.00
2019-04-20T01:52:45.733Z,0.00
2019-04-20T01:53:47.201Z,0.00
2019-04-20T01:54:52.403Z,0.00
2019-04-20T01:56:54.550Z,0.00
2019-04-20T01:58:08.040Z,0.00
2019-04-20T01:59:02.621Z,0.00
2019-04-20T01:59:54.173Z,0.00
2019-04-20T02:00:45.879Z,0.00
2019-04-20T02:01:45.584Z,0.00
2019-04-20T02:02:50.359Z,0.00
2019-04-20T02:03:48.533Z,0.00
2019-04-20T02:04:48.255Z,0.00
2019-04-20T02:05:53.125Z,0.00
2019-04-20T02:06:50.361Z,0.00
2019-04-20T02:07:48.783Z,0.00
2019-04-20T02:08:46.192Z,0.00
2019-04-20T02:09:51.460Z,0.00
2019-04-20T02:10:51.846Z,0.00
2019-04-20T02:11:47.363Z,0.00
2019-04-20T02:12:50.287Z,0.00
2019-04-20T02:13:51.603Z,0.00
2019-04-20T02:14:51.706Z,0.00
2019-04-20T02:15:50.818Z,0.00
2019-04-20T02:16:50.926Z,5.62
2019-04-20T02:18:01.278Z,5.62
2019-04-20T02:19:06.594Z,5.62
2019-04-20T02:20:05.457Z,5.62
2019-04-20T02:21:05.188Z,5.62
2019-04-20T02:22:00.241Z,5.62
2019-04-20T02:23:01.857Z,5.62
2019-04-20T02:23:51.555Z,5.62
2019-04-20T02:24:44.878Z,11.25
2019-04-20T02:25:44.011Z,11.25
2019-04-20T02:26:57.910Z,11.25
2019-04-20T02:27:49.672Z,11.25
2019-04-20T02:29:14.540Z,11.25
2019-04-20T02:30:13.485Z,11.25
2019-04-20T02:31:28.565Z,11.25
2019-04-20T02:33:29.424Z,16.88
2019-04-20T02:34:15.740Z,16.88
2019-04-20T02:35:40.364Z,16.88
2019-04-20T02:37:24.566Z,22.50
2019-04-20T02:38:48.937Z,22.50
2019-04-20T02:40:15.991Z,22.50
2019-04-20T02:41:18.240Z,28.12
2019-04-20T02:42:19.738Z,28.12
2019-04-20T02:43:15.102Z,28.12
2019-04-20T02:44:24.166Z,28.12
2019-04-20T02:45:33.344Z,33.75
2019-04-20T02:46:17.849Z,33.75
2019-04-20T02:47:21.401Z,33.75
2019-04-20T02:48:13.522Z,39.38
2019-04-20T02:50:19.204Z,39.38
2019-04-20T02:51:14.922Z,45.00
2019-04-20T02:52:20.910Z,45.00
2019-04-20T02:54:19.022Z,50.62
2019-04-20T02:55:16.991Z,50.62
2019-04-20T02:58:23.900Z,56.25
2019-04-20T02:59:47.454Z,56.25
2019-04-20T03:00:09.161Z,61.88
2019-04-20T03:01:03.900Z,61.88
2019-04-20T03:01:59.101Z,61.88
2019-04-20T03:02:55.925Z,67.50
2019-04-20T03:03:50.400Z,67.50
2019-04-20T03:04:56.560Z,67.50
2019-04-20T03:06:03.675Z,73.12
2019-04-20T03:06:58.389Z,73.12
2019-04-20T03:08:02.843Z,78.75
2019-04-20T03:09:11.281Z,78.75
2019-04-20T03:10:01.079Z,78.75
2019-04-20T03:11:09.281Z,84.38
2019-04-20T03:12:08.181Z,84.38
2019-04-20T03:13:08.772Z,84.38
2019-04-20T03:14:08.402Z,90.00
2019-04-20T03:14:59.736Z,90.00
2019-04-20T03:16:03.556Z,95.62
2019-04-20T03:17:12.836Z,95.62
2019-04-20T03:18:03.571Z,95.62
2019-04-20T03:18:58.446Z,101.25
2019-04-20T03:19:56.543Z,101.25
2019-04-20T03:21:07.615Z,101.25
2019-04-20T03:22:09.536Z,106.88
2019-04-20T03:24:11.733Z,112.50
2019-04-20T03:25:08.905Z,112.50
2019-04-20T03:26:09.518Z,112.50
2019-04-20T03:27:00.761Z,118.12
2019-04-20T03:28:05.064Z,118.12
2019-04-20T03:29:10.196Z,123.75
2019-04-20T03:30:04.222Z,123.75
2019-04-20T03:33:23.154Z,129.38
2019-04-20T03:34:40.606Z,129.38
2019-04-20T03:36:16.219Z,135.00
2019-04-20T03:37:07.366Z,140.62
2019-04-20T03:38:06.040Z,140.62
2019-04-20T03:39:01.437Z,140.62
2019-04-20T03:39:59.956Z,146.25
2019-04-20T03:40:56.562Z,146.25
2019-04-20T03:41:48.764Z,151.88
2019-04-20T03:42:44.679Z,151.88
2019-04-20T03:43:43.557Z,151.88
2019-04-20T03:44:50.156Z,157.50
2019-04-20T03:45:51.844Z,157.50
2019-04-20T03:46:51.795Z,157.50
2019-04-20T03:47:57.150Z,163.12
2019-04-20T03:49:01.041Z,264.38
2019-04-20T03:50:04.658Z,315.00
2019-04-20T03:51:02.102Z,421.88
2019-04-20T03:52:03.321Z,748.12
2019-04-20T03:53:10.020Z,877.50
2019-04-20T03:54:05.687Z,922.50
2019-04-20T03:54:55.305Z,916.88
2019-04-20T03:55:56.724Z,905.62
2019-04-20T03:57:02.330Z,939.38
2019-04-20T03:58:03.478Z,950.62
2019-04-20T03:58:55.445Z,916.88
2019-04-20T04:00:16.252Z,916.88
2019-04-20T04:01:02.217Z,978.75
2019-04-20T04:03:15.993Z,956.25
2019-04-20T04:04:10.145Z,995.62
2019-04-20T04:05:04.591Z,990.00
2019-04-20T04:05:55.535Z,1006.88
2019-04-20T04:06:50.995Z,1001.25
2019-04-20T04:07:50.885Z,1029.38
2019-04-20T04:08:58.673Z,1068.75
2019-04-20T04:09:59.780Z,1012.50
2019-04-20T04:11:03.278Z,1040.62
2019-04-20T04:12:00.204Z,1051.88
2019-04-20T04:12:45.110Z,1040.62
2019-04-20T04:13:42.393Z,1063.12
2019-04-20T04:14:42.864Z,1074.38
2019-04-20T04:15:48.753Z,1085.62
2019-04-20T04:16:49.830Z,1119.38
2019-04-20T04:17:45.595Z,1085.62
2019-04-20T04:18:47.180Z,1091.25
2019-04-20T04:19:53.405Z,1113.75
2019-04-20T04:20:50.005Z,1119.38
2019-04-20T04:21:58.105Z,1119.38
2019-04-20T04:23:02.505Z,1113.75
2019-04-20T04:23:59.978Z,1125.00
2019-04-20T04:24:58.654Z,1125.00
2019-04-20T04:26:00.814Z,1141.88
2019-04-20T04:27:00.463Z,1192.50
2019-04-20T04:28:01.337Z,1147.50
2019-04-20T04:29:02.677Z,1147.50
2019-04-20T04:30:03.280Z,1192.50
2019-04-20T04:31:11.954Z,1170.00
2019-04-20T04:32:12.986Z,1130.62
2019-04-20T04:33:34.186Z,1147.50
2019-04-20T04:34:03.604Z,1158.75
2019-04-20T04:34:58.917Z,1170.00
2019-04-20T04:35:59.244Z,1136.25
2019-04-20T04:37:03.438Z,1164.38
2019-04-20T04:38:02.600Z,1186.88
2019-04-20T04:39:03.818Z,1153.12
2019-04-20T04:40:14.868Z,1170.00
2019-04-20T04:41:10.650Z,1164.38
2019-04-20T04:42:10.224Z,1198.12
2019-04-20T04:43:05.456Z,1170.00
2019-04-20T04:43:59.470Z,1175.62
2019-04-20T04:44:51.453Z,1170.00
2019-04-20T04:45:43.031Z,1102.50
2019-04-20T04:46:50.467Z,1063.12
2019-04-20T04:47:43.028Z,1074.38
2019-04-20T04:48:45.986Z,1023.75
2019-04-20T04:49:49.835Z,1040.62
2019-04-20T04:50:50.690Z,1057.50
2019-04-20T04:51:51.985Z,1057.50
2019-04-20T04:52:53.900Z,1018.12
2019-04-20T04:53:52.996Z,990.00
2019-04-20T04:54:52.956Z,973.12
2019-04-20T04:55:52.302Z,928.12
2019-04-20T04:56:44.181Z,956.25
2019-04-20T04:57:43.020Z,933.75
2019-04-20T04:58:42.604Z,900.00
2019-04-20T04:59:42.544Z,765.00
2019-04-20T05:00:42.578Z,585.00
2019-04-20T05:01:56.782Z,534.38
2019-04-20T05:02:48.844Z,534.38
2019-04-20T05:04:13.046Z,540.00
2019-04-20T05:05:05.684Z,545.62
2019-04-20T05:06:03.486Z,540.00
2019-04-20T05:06:59.532Z,534.38
2019-04-20T05:07:58.424Z,523.12
2019-04-20T05:08:48.956Z,528.75
2019-04-20T05:09:42.878Z,528.75
2019-04-20T05:10:41.746Z,540.00
2019-04-20T05:11:42.744Z,568.12
2019-04-20T05:12:42.228Z,613.12
2019-04-20T05:13:48.557Z,669.38
2019-04-20T05:14:53.912Z,736.88
2019-04-20T05:15:55.538Z,888.75
2019-04-20T05:16:59.364Z,1164.38
2019-04-20T05:18:02.125Z,1282.50
2019-04-20T05:19:05.806Z,1102.50
2019-04-20T05:20:03.629Z,956.25
2019-04-20T05:21:06.923Z,973.12
2019-04-20T05:22:16.320Z,956.25
2019-04-20T05:23:01.238Z,911.25
2019-04-20T05:23:53.622Z,804.38
2019-04-20T05:25:06.779Z,765.00
2019-04-20T05:26:10.118Z,748.12
2019-04-20T05:27:08.770Z,759.38
2019-04-20T05:28:03.056Z,804.38
2019-04-20T05:28:52.708Z,731.25
2019-04-20T05:29:42.778Z,669.38
2019-04-20T05:30:46.850Z,669.38
2019-04-20T05:31:49.079Z,675.00
2019-04-20T05:33:01.476Z,720.00
2019-04-20T05:34:08.493Z,753.75
2019-04-20T05:35:08.475Z,736.88
2019-04-20T05:36:01.845Z,686.25
2019-04-20T05:37:05.472Z,680.62
2019-04-20T05:38:06.957Z,691.88
2019-04-20T05:39:13.107Z,669.38
2019-04-20T05:40:04.715Z,646.88
2019-04-20T05:41:04.542Z,675.00
2019-04-20T05:42:03.358Z,658.12
2019-04-20T05:43:01.894Z,658.12
2019-04-20T05:43:59.458Z,663.75
2019-04-20T05:45:03.287Z,652.50
2019-04-20T05:45:56.549Z,635.62
2019-04-20T05:47:09.277Z,652.50
2019-04-20T05:47:58.582Z,708.75
2019-04-20T05:49:03.326Z,720.00
2019-04-20T05:49:57.294Z,708.75
2019-04-20T05:50:56.044Z,708.75
2019-04-20T05:52:04.113Z,720.00
2019-04-20T05:53:08.790Z,742.50
2019-04-20T05:54:04.441Z,759.38
2019-04-20T05:55:03.029Z,759.38
2019-04-20T05:56:01.002Z,776.25
2019-04-20T05:57:12.553Z,810.00
2019-04-20T05:58:02.106Z,838.12
2019-04-20T05:59:00.849Z,832.50
2019-04-20T06:00:23.475Z,866.25
2019-04-20T06:01:05.596Z,922.50
2019-04-20T06:02:07.684Z,967.50
2019-04-20T06:03:02.324Z,945.00
2019-04-20T06:04:18.828Z,956.25
2019-04-20T06:05:05.341Z,1040.62
2019-04-20T06:06:08.278Z,1029.38
2019-04-20T06:06:59.618Z,1063.12
2019-04-20T06:09:05.163Z,1254.38
2019-04-20T06:10:05.905Z,1383.75
2019-04-20T06:11:02.593Z,1490.62
2019-04-20T06:12:13.082Z,1518.75
2019-04-20T06:13:01.533Z,1423.12
2019-04-20T06:13:50.650Z,1158.75
2019-04-20T06:14:57.165Z,950.62
2019-04-20T06:16:01.180Z,810.00
2019-04-20T06:17:04.170Z,720.00
2019-04-20T06:17:59.642Z,675.00
2019-04-20T06:19:08.803Z,658.12
2019-04-20T06:20:06.445Z,630.00
2019-04-20T06:21:17.991Z,624.38
2019-04-20T06:22:05.174Z,601.88
2019-04-20T06:23:11.858Z,556.88
2019-04-20T06:24:06.681Z,511.88
2019-04-20T06:25:19.622Z,466.88
2019-04-20T06:26:19.468Z,450.00
2019-04-20T06:27:03.207Z,433.12
2019-04-20T06:28:02.074Z,421.88
2019-04-20T06:28:55.192Z,416.25
2019-04-20T06:30:00.822Z,410.62
2019-04-20T06:30:57.785Z,405.00
2019-04-20T06:32:05.167Z,405.00
2019-04-20T06:33:11.522Z,405.00
2019-04-20T06:35:25.755Z,399.38
2019-04-20T06:38:23.198Z,399.38
2019-04-20T06:39:12.362Z,376.88
2019-04-20T06:40:07.837Z,354.38
2019-04-20T06:41:21.486Z,348.75
2019-04-20T06:43:05.476Z,360.00
2019-04-20T06:44:08.476Z,354.38
2019-04-20T06:45:04.714Z,348.75
2019-04-20T06:46:12.942Z,348.75
2019-04-20T06:48:12.258Z,348.75
2019-04-20T06:49:10.645Z,348.75
2019-04-20T06:50:03.377Z,348.75
2019-04-20T06:50:57.026Z,348.75
2019-04-20T06:52:10.130Z,348.75
2019-04-20T06:53:07.697Z,348.75
2019-04-20T06:53:52.550Z,348.75
2019-04-20T06:54:58.180Z,348.75
2019-04-20T06:56:05.490Z,348.75
2019-04-20T06:58:00.787Z,348.75
2019-04-20T06:59:04.438Z,348.75
2019-04-20T07:00:03.700Z,348.75
2019-04-20T07:01:03.847Z,348.75
2019-04-20T07:02:11.178Z,348.75
2019-04-20T07:03:01.831Z,348.75
2019-04-20T07:04:59.359Z,348.75
2019-04-20T07:06:30.815Z,348.75
2019-04-20T07:07:18.458Z,348.75
2019-04-20T07:08:16.935Z,348.75
2019-04-20T07:09:06.624Z,348.75
2019-04-20T07:10:08.739Z,348.75
2019-04-20T07:11:08.910Z,348.75
2019-04-20T07:12:03.032Z,348.75
2019-04-20T07:12:59.814Z,348.75
2019-04-20T07:13:53.157Z,348.75
2019-04-20T07:14:54.127Z,348.75
2019-04-20T07:15:51.978Z,348.75
2019-04-20T07:17:10.760Z,348.75
2019-04-20T07:18:04.936Z,354.38
2019-04-20T07:19:01.951Z,348.75
2019-04-20T07:20:02.740Z,348.75
2019-04-20T07:20:59.294Z,354.38
2019-04-20T07:23:11.685Z,360.00
2019-04-20T07:24:04.743Z,354.38
2019-04-20T07:25:02.181Z,354.38
2019-04-20T07:26:06.699Z,354.38
2019-04-20T07:27:01.337Z,354.38
2019-04-20T07:28:09.713Z,354.38
2019-04-20T07:29:07.129Z,354.38
2019-04-20T07:30:03.853Z,354.38
2019-04-20T07:31:01.805Z,354.38
2019-04-20T07:31:57.721Z,354.38
2019-04-20T07:33:04.173Z,354.38
2019-04-20T07:34:07.440Z,354.38
2019-04-20T07:35:02.372Z,354.38
2019-04-20T07:36:05.932Z,354.38
2019-04-20T07:37:41.969Z,354.38
2019-04-20T07:38:18.144Z,354.38
2019-04-20T07:39:07.834Z,354.38
2019-04-20T07:40:06.007Z,354.38
2019-04-20T07:40:58.866Z,354.38
2019-04-20T07:42:08.189Z,354.38
2019-04-20T07:43:00.270Z,354.38
2019-04-20T07:44:10.430Z,354.38
2019-04-20T07:45:07.693Z,360.00
2019-04-20T07:46:03.013Z,360.00
2019-04-20T07:47:08.968Z,360.00
2019-04-20T07:48:07.410Z,360.00
2019-04-20T07:49:04.355Z,360.00
2019-04-20T07:49:58.062Z,360.00
2019-04-20T07:50:55.400Z,360.00
2019-04-20T07:51:44.328Z,360.00
2019-04-20T07:52:51.433Z,360.00
2019-04-20T07:54:10.755Z,360.00
2019-04-20T07:55:20.694Z,360.00
2019-04-20T07:56:17.744Z,360.00
2019-04-20T07:57:01.123Z,360.00
2019-04-20T07:57:53.709Z,360.00
2019-04-20T07:58:48.173Z,360.00
2019-04-20T07:59:58.987Z,360.00
2019-04-20T08:01:09.073Z,360.00
2019-04-20T08:02:13.799Z,360.00
2019-04-20T08:03:03.085Z,360.00
2019-04-20T08:04:06.714Z,360.00
2019-04-20T08:04:57.880Z,360.00
2019-04-20T08:05:54.110Z,360.00
2019-04-20T08:06:48.781Z,360.00
2019-04-20T08:08:13.078Z,360.00
2019-04-20T08:08:57.133Z,360.00
2019-04-20T08:09:49.694Z,360.00
2019-04-20T08:10:58.678Z,360.00
2019-04-20T08:12:09.511Z,360.00
2019-04-20T08:13:02.173Z,365.62
2019-04-20T08:14:08.687Z,360.00
2019-04-20T08:15:04.763Z,360.00
2019-04-20T08:16:04.654Z,360.00
2019-04-20T08:17:14.244Z,360.00
2019-04-20T08:17:59.971Z,360.00
2019-04-20T08:18:58.585Z,360.00
2019-04-20T08:19:59.646Z,360.00
2019-04-20T08:20:57.645Z,360.00
2019-04-20T08:22:02.606Z,360.00
2019-04-20T08:22:58.631Z,360.00
2019-04-20T08:24:02.671Z,360.00
2019-04-20T08:24:55.236Z,360.00
2019-04-20T08:25:52.265Z,360.00
2019-04-20T08:26:49.679Z,360.00
2019-04-20T08:27:40.545Z,360.00
2019-04-20T08:28:49.599Z,360.00
2019-04-20T08:29:55.437Z,360.00
2019-04-20T08:30:57.060Z,360.00
2019-04-20T08:31:55.998Z,360.00
2019-04-20T08:32:53.952Z,360.00
2019-04-20T08:34:07.691Z,360.00
2019-04-20T08:35:05.142Z,360.00
2019-04-20T08:36:09.280Z,360.00
2019-04-20T08:37:03.253Z,360.00
2019-04-20T08:38:26.744Z,360.00
2019-04-20T08:41:00.507Z,360.00
2019-04-20T08:43:13.142Z,360.00
2019-04-20T08:44:09.864Z,365.62
2019-04-20T08:45:04.065Z,360.00
2019-04-20T08:46:05.257Z,360.00
2019-04-20T08:47:14.733Z,360.00
2019-04-20T08:48:09.852Z,360.00
2019-04-20T08:49:03.981Z,360.00
2019-04-20T08:50:15.159Z,360.00
2019-04-20T08:51:04.747Z,360.00
2019-04-20T08:52:20.970Z,360.00
2019-04-20T08:53:15.914Z,360.00
2019-04-20T08:53:59.682Z,360.00
2019-04-20T08:55:01.253Z,360.00
2019-04-20T08:55:52.470Z,360.00
2019-04-20T08:56:47.029Z,360.00
2019-04-20T08:57:42.449Z,360.00
2019-04-20T08:58:41.437Z,360.00
2019-04-20T08:59:43.625Z,360.00
2019-04-20T09:00:49.620Z,360.00
2019-04-20T09:01:42.670Z,360.00
2019-04-20T09:02:47.947Z,360.00
2019-04-20T09:03:52.995Z,360.00
2019-04-20T09:04:48.985Z,360.00
2019-04-20T09:05:52.309Z,365.62
2019-04-20T09:06:54.629Z,365.62
2019-04-20T09:07:53.897Z,365.62
2019-04-20T09:08:50.544Z,360.00
